sensor_id;sensor_type;location;lat;lon;timestamp;pressure;altitude;pressure_sealevel;temperature;humidity
41078;BME280;26823;42.662;23.352;2023-07-16T00:01:51;95012.41;;;24.47;72.91
41078;BME280;26823;42.662;23.352;2023-07-16T00:04:17;95036.41;;;24.62;71.81
41078;BME280;26823;42.662;23.352;2023-07-16T00:06:42;95030.50;;;24.44;72.33
41078;BME280;26823;42.662;23.352;2023-07-16T00:09:07;95035.44;;;24.70;72.37
41078;BME280;26823;42.662;23.352;2023-07-16T00:11:33;95036.38;;;24.78;71.38
41078;BME280;26823;42.662;23.352;2023-07-16T00:13:59;95036.50;;;24.85;70.93
41078;BME280;26823;42.662;23.352;2023-07-16T00:16:24;95008.13;;;24.69;72.14
41078;BME280;26823;42.662;23.352;2023-07-16T00:18:49;95009.38;;;24.71;70.45
41078;BME280;26823;42.662;23.352;2023-07-16T00:21:15;95020.44;;;24.71;70.56
41078;BME280;26823;42.662;23.352;2023-07-16T00:23:40;95032.16;;;24.84;71.13
41078;BME280;26823;42.662;23.352;2023-07-16T00:26:06;95029.72;;;24.83;70.88
41078;BME280;26823;42.662;23.352;2023-07-16T00:28:31;95031.41;;;24.87;71.27
41078;BME280;26823;42.662;23.352;2023-07-16T00:30:56;95032.56;;;24.86;70.97
41078;BME280;26823;42.662;23.352;2023-07-16T00:33:22;95033.53;;;24.74;70.28
41078;BME280;26823;42.662;23.352;2023-07-16T00:35:48;95004.38;;;24.61;71.42
41078;BME280;26823;42.662;23.352;2023-07-16T00:38:14;95024.94;;;24.60;71.27
41078;BME280;26823;42.662;23.352;2023-07-16T00:40:39;95038.13;;;24.67;71.17
41078;BME280;26823;42.662;23.352;2023-07-16T00:43:05;95037.22;;;24.82;70.61
41078;BME280;26823;42.662;23.352;2023-07-16T00:45:30;95025.81;;;24.64;70.56
41078;BME280;26823;42.662;23.352;2023-07-16T00:47:55;95043.06;;;24.77;70.17
41078;BME280;26823;42.662;23.352;2023-07-16T00:50:21;95021.28;;;24.36;71.60
41078;BME280;26823;42.662;23.352;2023-07-16T00:52:46;95029.34;;;24.45;71.22
41078;BME280;26823;42.662;23.352;2023-07-16T00:55:12;95028.41;;;24.37;71.55
41078;BME280;26823;42.662;23.352;2023-07-16T00:57:38;95031.91;;;24.54;71.18
41078;BME280;26823;42.662;23.352;2023-07-16T01:00:05;95022.94;;;24.41;71.56
41078;BME280;26823;42.662;23.352;2023-07-16T01:02:31;95022.72;;;24.50;71.47
41078;BME280;26823;42.662;23.352;2023-07-16T01:04:56;95036.13;;;24.67;72.00
41078;BME280;26823;42.662;23.352;2023-07-16T01:07:24;95032.41;;;24.59;70.86
41078;BME280;26823;42.662;23.352;2023-07-16T01:09:51;95031.78;;;24.66;70.66
41078;BME280;26823;42.662;23.352;2023-07-16T01:12:18;95032.28;;;24.72;70.30
41078;BME280;26823;42.662;23.352;2023-07-16T01:14:45;95021.44;;;24.43;70.98
41078;BME280;26823;42.662;23.352;2023-07-16T01:17:11;95025.25;;;24.58;70.83
41078;BME280;26823;42.662;23.352;2023-07-16T01:19:36;95028.47;;;24.61;70.21
41078;BME280;26823;42.662;23.352;2023-07-16T01:25:09;95019.97;;;24.30;71.91
41078;BME280;26823;42.662;23.352;2023-07-16T01:30:19;95025.22;;;24.19;71.69
41078;BME280;26823;42.662;23.352;2023-07-16T01:32:46;95026.22;;;24.27;71.67
41078;BME280;26823;42.662;23.352;2023-07-16T01:35:12;95023.03;;;24.09;71.96
41078;BME280;26823;42.662;23.352;2023-07-16T01:37:39;95022.97;;;24.05;72.57
41078;BME280;26823;42.662;23.352;2023-07-16T01:40:07;95028.00;;;24.19;72.23
41078;BME280;26823;42.662;23.352;2023-07-16T01:42:34;95023.88;;;23.93;72.81
41078;BME280;26823;42.662;23.352;2023-07-16T01:44:59;95030.38;;;24.01;72.86
41078;BME280;26823;42.662;23.352;2023-07-16T01:50:06;95026.00;;;24.00;71.99
41078;BME280;26823;42.662;23.352;2023-07-16T01:52:31;95022.97;;;23.89;72.42
41078;BME280;26823;42.662;23.352;2023-07-16T01:54:57;95034.59;;;23.79;72.74
41078;BME280;26823;42.662;23.352;2023-07-16T01:57:22;95033.94;;;23.86;72.71
41078;BME280;26823;42.662;23.352;2023-07-16T01:59:47;95045.78;;;23.86;72.71
41078;BME280;26823;42.662;23.352;2023-07-16T02:02:13;95021.69;;;23.35;74.56
41078;BME280;26823;42.662;23.352;2023-07-16T02:04:38;95037.78;;;23.49;74.43
41078;BME280;26823;42.662;23.352;2023-07-16T02:07:04;95037.78;;;23.17;76.13
41078;BME280;26823;42.662;23.352;2023-07-16T02:09:29;95039.81;;;23.20;76.06
41078;BME280;26823;42.662;23.352;2023-07-16T02:11:54;95037.94;;;23.24;75.90
41078;BME280;26823;42.662;23.352;2023-07-16T02:14:20;95031.69;;;23.11;76.21
41078;BME280;26823;42.662;23.352;2023-07-16T02:16:45;95035.56;;;23.23;76.65
41078;BME280;26823;42.662;23.352;2023-07-16T02:19:11;95036.81;;;23.25;76.06
41078;BME280;26823;42.662;23.352;2023-07-16T02:21:36;95037.88;;;23.37;75.35
41078;BME280;26823;42.662;23.352;2023-07-16T02:24:01;95045.47;;;23.40;75.26
41078;BME280;26823;42.662;23.352;2023-07-16T02:26:27;95036.38;;;23.39;75.75
41078;BME280;26823;42.662;23.352;2023-07-16T02:28:52;95032.53;;;23.28;75.54
41078;BME280;26823;42.662;23.352;2023-07-16T02:31:17;95044.13;;;23.05;76.63
41078;BME280;26823;42.662;23.352;2023-07-16T02:33:43;95040.09;;;23.15;76.62
41078;BME280;26823;42.662;23.352;2023-07-16T02:36:08;95041.97;;;23.27;75.81
41078;BME280;26823;42.662;23.352;2023-07-16T02:38:34;95044.66;;;23.39;75.72
41078;BME280;26823;42.662;23.352;2023-07-16T02:40:59;95038.84;;;23.44;74.96
41078;BME280;26823;42.662;23.352;2023-07-16T02:43:25;95038.59;;;23.34;75.15
41078;BME280;26823;42.662;23.352;2023-07-16T02:45:50;95047.94;;;23.45;75.45
41078;BME280;26823;42.662;23.352;2023-07-16T02:48:15;95036.00;;;23.41;74.95
41078;BME280;26823;42.662;23.352;2023-07-16T02:50:41;95042.97;;;23.06;76.06
41078;BME280;26823;42.662;23.352;2023-07-16T02:53:07;95031.75;;;23.27;75.66
41078;BME280;26823;42.662;23.352;2023-07-16T02:55:34;95042.59;;;23.36;75.05
41078;BME280;26823;42.662;23.352;2023-07-16T02:58:00;95042.25;;;23.38;75.45
41078;BME280;26823;42.662;23.352;2023-07-16T03:00:32;95042.69;;;23.40;74.89
41078;BME280;26823;42.662;23.352;2023-07-16T03:02:58;95048.19;;;23.24;74.93
41078;BME280;26823;42.662;23.352;2023-07-16T03:05:24;95051.31;;;23.38;75.03
41078;BME280;26823;42.662;23.352;2023-07-16T03:07:50;95039.56;;;23.25;75.40
41078;BME280;26823;42.662;23.352;2023-07-16T03:10:15;95036.53;;;23.31;74.67
41078;BME280;26823;42.662;23.352;2023-07-16T03:12:41;95044.81;;;23.31;74.87
41078;BME280;26823;42.662;23.352;2023-07-16T03:15:07;95041.88;;;23.39;75.83
41078;BME280;26823;42.662;23.352;2023-07-16T03:17:32;95043.22;;;23.45;73.68
41078;BME280;26823;42.662;23.352;2023-07-16T03:19:58;95060.59;;;23.46;73.23
41078;BME280;26823;42.662;23.352;2023-07-16T03:22:23;95047.41;;;23.39;73.28
41078;BME280;26823;42.662;23.352;2023-07-16T03:24:48;95052.81;;;23.36;73.57
41078;BME280;26823;42.662;23.352;2023-07-16T03:27:14;95052.59;;;23.12;74.55
41078;BME280;26823;42.662;23.352;2023-07-16T03:29:39;95050.97;;;23.24;74.29
41078;BME280;26823;42.662;23.352;2023-07-16T03:32:05;95054.47;;;23.08;74.46
41078;BME280;26823;42.662;23.352;2023-07-16T03:34:30;95051.31;;;22.94;75.58
41078;BME280;26823;42.662;23.352;2023-07-16T03:36:55;95036.84;;;22.97;75.07
41078;BME280;26823;42.662;23.352;2023-07-16T03:39:21;95051.44;;;23.13;74.92
41078;BME280;26823;42.662;23.352;2023-07-16T03:41:46;95063.59;;;23.25;74.26
41078;BME280;26823;42.662;23.352;2023-07-16T03:44:12;95066.72;;;23.23;74.96
41078;BME280;26823;42.662;23.352;2023-07-16T03:46:44;95067.66;;;23.15;74.68
41078;BME280;26823;42.662;23.352;2023-07-16T03:49:09;95068.41;;;23.28;74.34
41078;BME280;26823;42.662;23.352;2023-07-16T03:51:35;95071.34;;;23.35;74.48
41078;BME280;26823;42.662;23.352;2023-07-16T03:54:07;95067.97;;;23.42;74.14
41078;BME280;26823;42.662;23.352;2023-07-16T03:56:32;95068.06;;;23.45;74.53
41078;BME280;26823;42.662;23.352;2023-07-16T03:58:58;95071.53;;;23.42;75.00
41078;BME280;26823;42.662;23.352;2023-07-16T04:01:23;95048.22;;;23.40;74.62
41078;BME280;26823;42.662;23.352;2023-07-16T04:03:48;95083.50;;;23.63;74.36
41078;BME280;26823;42.662;23.352;2023-07-16T04:06:14;95080.72;;;23.63;74.59
41078;BME280;26823;42.662;23.352;2023-07-16T04:08:39;95074.28;;;23.58;74.90
41078;BME280;26823;42.662;23.352;2023-07-16T04:11:05;95073.41;;;23.70;74.67
41078;BME280;26823;42.662;23.352;2023-07-16T04:13:31;95085.88;;;23.64;74.46
41078;BME280;26823;42.662;23.352;2023-07-16T04:15:56;95079.81;;;23.74;74.37
41078;BME280;26823;42.662;23.352;2023-07-16T04:18:23;95080.69;;;23.78;74.50
41078;BME280;26823;42.662;23.352;2023-07-16T04:20:49;95078.03;;;23.82;74.65
41078;BME280;26823;42.662;23.352;2023-07-16T04:23:14;95073.50;;;23.74;73.51
41078;BME280;26823;42.662;23.352;2023-07-16T04:25:40;95083.28;;;23.87;73.59
41078;BME280;26823;42.662;23.352;2023-07-16T04:28:05;95087.66;;;23.40;73.14
41078;BME280;26823;42.662;23.352;2023-07-16T04:30:31;95081.22;;;23.08;74.71
41078;BME280;26823;42.662;23.352;2023-07-16T04:32:56;95082.63;;;22.86;75.88
41078;BME280;26823;42.662;23.352;2023-07-16T04:35:22;95081.94;;;23.17;76.06
41078;BME280;26823;42.662;23.352;2023-07-16T04:37:47;95089.25;;;23.41;75.77
41078;BME280;26823;42.662;23.352;2023-07-16T04:40:12;95085.44;;;23.46;75.51
41078;BME280;26823;42.662;23.352;2023-07-16T04:42:38;95096.84;;;23.60;75.41
41078;BME280;26823;42.662;23.352;2023-07-16T04:45:04;95092.72;;;23.54;75.62
41078;BME280;26823;42.662;23.352;2023-07-16T04:47:30;95099.94;;;23.75;74.88
41078;BME280;26823;42.662;23.352;2023-07-16T04:49:58;95093.34;;;23.80;74.06
41078;BME280;26823;42.662;23.352;2023-07-16T04:52:23;95095.47;;;23.86;73.89
41078;BME280;26823;42.662;23.352;2023-07-16T04:54:49;95092.16;;;23.93;73.32
41078;BME280;26823;42.662;23.352;2023-07-16T04:57:14;95102.56;;;24.00;73.54
41078;BME280;26823;42.662;23.352;2023-07-16T04:59:40;95099.06;;;24.03;72.64
41078;BME280;26823;42.662;23.352;2023-07-16T05:02:06;95107.44;;;24.06;73.23
41078;BME280;26823;42.662;23.352;2023-07-16T05:04:32;95103.69;;;24.15;72.42
41078;BME280;26823;42.662;23.352;2023-07-16T05:06:58;95104.94;;;23.85;72.85
41078;BME280;26823;42.662;23.352;2023-07-16T05:09:23;95096.22;;;23.67;72.78
41078;BME280;26823;42.662;23.352;2023-07-16T05:11:48;95106.72;;;23.77;73.29
41078;BME280;26823;42.662;23.352;2023-07-16T05:14:14;95101.47;;;23.88;73.10
41078;BME280;26823;42.662;23.352;2023-07-16T05:16:39;95096.56;;;23.98;72.78
41078;BME280;26823;42.662;23.352;2023-07-16T05:19:04;95113.31;;;24.21;72.93
41078;BME280;26823;42.662;23.352;2023-07-16T05:21:30;95100.47;;;24.29;72.10
41078;BME280;26823;42.662;23.352;2023-07-16T05:23:55;95102.28;;;24.40;71.35
41078;BME280;26823;42.662;23.352;2023-07-16T05:26:20;95091.53;;;24.35;71.66
41078;BME280;26823;42.662;23.352;2023-07-16T05:28:46;95101.94;;;24.42;71.42
41078;BME280;26823;42.662;23.352;2023-07-16T05:31:11;95103.16;;;24.45;70.97
41078;BME280;26823;42.662;23.352;2023-07-16T05:33:36;95091.25;;;24.24;70.95
41078;BME280;26823;42.662;23.352;2023-07-16T05:36:02;95102.66;;;24.39;71.34
41078;BME280;26823;42.662;23.352;2023-07-16T05:38:28;95108.56;;;24.57;71.26
41078;BME280;26823;42.662;23.352;2023-07-16T05:40:53;95119.19;;;24.71;69.60
41078;BME280;26823;42.662;23.352;2023-07-16T05:43:18;95104.28;;;24.59;70.44
41078;BME280;26823;42.662;23.352;2023-07-16T05:45:44;95105.72;;;24.69;70.77
41078;BME280;26823;42.662;23.352;2023-07-16T05:48:09;95120.56;;;24.81;70.69
41078;BME280;26823;42.662;23.352;2023-07-16T05:50:35;95124.72;;;24.90;70.42
41078;BME280;26823;42.662;23.352;2023-07-16T05:53:00;95128.28;;;25.11;69.29
41078;BME280;26823;42.662;23.352;2023-07-16T05:55:25;95124.44;;;24.96;68.02
41078;BME280;26823;42.662;23.352;2023-07-16T05:57:51;95127.50;;;24.90;69.24
41078;BME280;26823;42.662;23.352;2023-07-16T06:00:16;95120.56;;;25.00;69.01
41078;BME280;26823;42.662;23.352;2023-07-16T06:02:42;95119.13;;;24.87;68.34
41078;BME280;26823;42.662;23.352;2023-07-16T06:05:08;95120.72;;;25.07;67.67
41078;BME280;26823;42.662;23.352;2023-07-16T06:07:33;95126.47;;;25.18;68.32
41078;BME280;26823;42.662;23.352;2023-07-16T06:09:59;95119.09;;;25.26;67.42
41078;BME280;26823;42.662;23.352;2023-07-16T06:12:24;95126.91;;;25.40;66.99
41078;BME280;26823;42.662;23.352;2023-07-16T06:14:50;95128.50;;;25.21;67.54
41078;BME280;26823;42.662;23.352;2023-07-16T06:17:15;95105.91;;;25.19;67.53
41078;BME280;26823;42.662;23.352;2023-07-16T06:19:40;95130.53;;;25.44;67.02
41078;BME280;26823;42.662;23.352;2023-07-16T06:22:06;95113.25;;;25.51;67.81
41078;BME280;26823;42.662;23.352;2023-07-16T06:24:32;95126.25;;;25.70;66.29
41078;BME280;26823;42.662;23.352;2023-07-16T06:26:57;95127.41;;;25.69;65.95
41078;BME280;26823;42.662;23.352;2023-07-16T06:29:23;95124.06;;;25.79;64.86
41078;BME280;26823;42.662;23.352;2023-07-16T06:31:56;95121.25;;;25.56;64.47
41078;BME280;26823;42.662;23.352;2023-07-16T06:34:22;95111.59;;;25.46;65.34
41078;BME280;26823;42.662;23.352;2023-07-16T06:36:47;95126.13;;;25.63;66.07
41078;BME280;26823;42.662;23.352;2023-07-16T06:39:13;95125.47;;;25.69;64.59
41078;BME280;26823;42.662;23.352;2023-07-16T06:41:38;95127.13;;;25.74;65.17
41078;BME280;26823;42.662;23.352;2023-07-16T06:44:04;95118.84;;;25.78;64.99
41078;BME280;26823;42.662;23.352;2023-07-16T06:46:29;95110.06;;;25.95;65.10
41078;BME280;26823;42.662;23.352;2023-07-16T06:48:54;95113.19;;;25.94;64.14
41078;BME280;26823;42.662;23.352;2023-07-16T06:51:20;95110.94;;;25.99;65.05
41078;BME280;26823;42.662;23.352;2023-07-16T06:53:45;95120.19;;;26.07;64.65
41078;BME280;26823;42.662;23.352;2023-07-16T06:56:11;95111.56;;;26.12;64.87
41078;BME280;26823;42.662;23.352;2023-07-16T06:58:36;95113.25;;;26.20;63.72
41078;BME280;26823;42.662;23.352;2023-07-16T07:01:02;95122.84;;;26.27;63.48
41078;BME280;26823;42.662;23.352;2023-07-16T07:03:27;95117.75;;;26.29;63.69
41078;BME280;26823;42.662;23.352;2023-07-16T07:05:52;95117.94;;;26.16;62.33
41078;BME280;26823;42.662;23.352;2023-07-16T07:08:18;95111.69;;;26.23;62.59
41078;BME280;26823;42.662;23.352;2023-07-16T07:10:43;95114.91;;;26.25;62.84
41078;BME280;26823;42.662;23.352;2023-07-16T07:13:09;95106.75;;;26.36;63.18
41078;BME280;26823;42.662;23.352;2023-07-16T07:15:34;95115.28;;;26.50;62.48
41078;BME280;26823;42.662;23.352;2023-07-16T07:18:00;95109.78;;;26.54;62.96
41078;BME280;26823;42.662;23.352;2023-07-16T07:20:25;95109.91;;;26.65;62.96
41078;BME280;26823;42.662;23.352;2023-07-16T07:22:50;95111.66;;;26.73;61.69
41078;BME280;26823;42.662;23.352;2023-07-16T07:25:16;95111.44;;;26.85;61.25
41078;BME280;26823;42.662;23.352;2023-07-16T07:27:41;95109.00;;;26.84;60.50
41078;BME280;26823;42.662;23.352;2023-07-16T07:30:07;95094.16;;;26.73;61.01
41078;BME280;26823;42.662;23.352;2023-07-16T07:32:36;95109.09;;;26.91;61.13
41078;BME280;26823;42.662;23.352;2023-07-16T07:35:02;95100.50;;;27.00;61.24
41078;BME280;26823;42.662;23.352;2023-07-16T07:37:27;95112.47;;;27.08;60.31
41078;BME280;26823;42.662;23.352;2023-07-16T07:39:53;95105.50;;;27.21;60.07
41078;BME280;26823;42.662;23.352;2023-07-16T07:42:18;95113.06;;;27.24;58.78
41078;BME280;26823;42.662;23.352;2023-07-16T07:44:43;95108.78;;;27.30;58.22
41078;BME280;26823;42.662;23.352;2023-07-16T07:47:09;95100.59;;;27.41;57.96
41078;BME280;26823;42.662;23.352;2023-07-16T07:49:34;95104.44;;;27.33;59.92
41078;BME280;26823;42.662;23.352;2023-07-16T07:52:00;95112.16;;;27.47;58.21
41078;BME280;26823;42.662;23.352;2023-07-16T07:54:32;95105.47;;;27.52;57.51
41078;BME280;26823;42.662;23.352;2023-07-16T07:57:01;95104.44;;;27.71;57.59
41078;BME280;26823;42.662;23.352;2023-07-16T07:59:28;95075.28;;;27.50;58.20
41078;BME280;26823;42.662;23.352;2023-07-16T08:01:53;95107.81;;;27.49;56.59
41078;BME280;26823;42.662;23.352;2023-07-16T08:04:19;95105.47;;;27.52;56.95
41078;BME280;26823;42.662;23.352;2023-07-16T08:06:44;95106.28;;;27.56;57.64
41078;BME280;26823;42.662;23.352;2023-07-16T08:09:09;95103.03;;;27.50;58.60
41078;BME280;26823;42.662;23.352;2023-07-16T08:11:35;95097.97;;;27.56;58.48
41078;BME280;26823;42.662;23.352;2023-07-16T08:14:00;95100.06;;;27.70;58.50
41078;BME280;26823;42.662;23.352;2023-07-16T08:16:27;95112.88;;;27.81;57.23
41078;BME280;26823;42.662;23.352;2023-07-16T08:18:52;95105.59;;;27.66;58.14
41078;BME280;26823;42.662;23.352;2023-07-16T08:21:18;95107.69;;;27.80;58.06
41078;BME280;26823;42.662;23.352;2023-07-16T08:23:46;95106.22;;;27.90;57.88
41078;BME280;26823;42.662;23.352;2023-07-16T08:26:12;95105.16;;;28.05;56.81
41078;BME280;26823;42.662;23.352;2023-07-16T08:28:38;95104.81;;;28.10;57.20
41078;BME280;26823;42.662;23.352;2023-07-16T08:31:03;95116.47;;;28.30;56.35
41078;BME280;26823;42.662;23.352;2023-07-16T08:33:28;95116.03;;;28.25;55.87
41078;BME280;26823;42.662;23.352;2023-07-16T08:35:54;95106.53;;;28.29;56.89
41078;BME280;26823;42.662;23.352;2023-07-16T08:38:19;95103.84;;;28.40;55.66
41078;BME280;26823;42.662;23.352;2023-07-16T08:40:47;95106.66;;;28.44;54.92
41078;BME280;26823;42.662;23.352;2023-07-16T08:43:15;95104.63;;;28.41;54.98
41078;BME280;26823;42.662;23.352;2023-07-16T08:45:41;95110.69;;;28.57;55.39
41078;BME280;26823;42.662;23.352;2023-07-16T08:48:10;95107.84;;;28.46;55.98
41078;BME280;26823;42.662;23.352;2023-07-16T08:50:37;95110.03;;;28.75;55.33
41078;BME280;26823;42.662;23.352;2023-07-16T08:53:05;95094.59;;;28.88;54.50
41078;BME280;26823;42.662;23.352;2023-07-16T08:55:32;95080.31;;;29.04;53.67
41078;BME280;26823;42.662;23.352;2023-07-16T08:57:58;95101.84;;;29.15;53.14
41078;BME280;26823;42.662;23.352;2023-07-16T09:00:26;95103.13;;;29.32;54.06
41078;BME280;26823;42.662;23.352;2023-07-16T09:02:54;95096.75;;;29.35;53.68
41078;BME280;26823;42.662;23.352;2023-07-16T09:05:21;95105.84;;;29.13;53.35
41078;BME280;26823;42.662;23.352;2023-07-16T09:07:47;95095.06;;;29.12;53.31
41078;BME280;26823;42.662;23.352;2023-07-16T09:10:12;95099.53;;;29.31;52.70
41078;BME280;26823;42.662;23.352;2023-07-16T09:12:45;95094.41;;;29.55;52.77
41078;BME280;26823;42.662;23.352;2023-07-16T09:15:11;95098.03;;;29.73;52.82
41078;BME280;26823;42.662;23.352;2023-07-16T09:17:37;95094.47;;;29.84;53.31
41078;BME280;26823;42.662;23.352;2023-07-16T09:20:04;95082.97;;;29.96;50.72
41078;BME280;26823;42.662;23.352;2023-07-16T09:22:30;95090.13;;;29.90;52.03
41078;BME280;26823;42.662;23.352;2023-07-16T09:24:56;95091.63;;;29.44;51.22
41078;BME280;26823;42.662;23.352;2023-07-16T09:27:28;95082.88;;;29.49;52.17
41078;BME280;26823;42.662;23.352;2023-07-16T09:29:54;95084.44;;;29.36;52.08
41078;BME280;26823;42.662;23.352;2023-07-16T09:32:19;95077.31;;;29.60;52.36
41078;BME280;26823;42.662;23.352;2023-07-16T09:34:45;95082.09;;;29.63;51.79
41078;BME280;26823;42.662;23.352;2023-07-16T09:37:14;95077.34;;;29.74;51.97
41078;BME280;26823;42.662;23.352;2023-07-16T09:39:39;95083.72;;;29.86;52.21
41078;BME280;26823;42.662;23.352;2023-07-16T09:42:06;95072.19;;;30.02;51.23
41078;BME280;26823;42.662;23.352;2023-07-16T09:44:32;95086.94;;;29.99;51.42
41078;BME280;26823;42.662;23.352;2023-07-16T09:46:57;95049.50;;;29.92;51.41
41078;BME280;26823;42.662;23.352;2023-07-16T09:49:25;95071.38;;;30.19;50.75
41078;BME280;26823;42.662;23.352;2023-07-16T09:51:56;95065.44;;;30.14;50.97
41078;BME280;26823;42.662;23.352;2023-07-16T09:54:23;95068.59;;;30.19;51.05
41078;BME280;26823;42.662;23.352;2023-07-16T09:56:52;95065.81;;;30.16;50.82
41078;BME280;26823;42.662;23.352;2023-07-16T09:59:23;95055.06;;;30.07;51.02
41078;BME280;26823;42.662;23.352;2023-07-16T10:01:49;95049.06;;;30.12;50.72
41078;BME280;26823;42.662;23.352;2023-07-16T10:04:17;95057.81;;;30.29;51.21
41078;BME280;26823;42.662;23.352;2023-07-16T10:06:57;95064.56;;;30.42;50.65
41078;BME280;26823;42.662;23.352;2023-07-16T10:09:37;95050.22;;;30.47;49.96
41078;BME280;26823;42.662;23.352;2023-07-16T10:12:15;95052.22;;;30.54;50.34
41078;BME280;26823;42.662;23.352;2023-07-16T10:14:48;95048.63;;;30.53;50.32
41078;BME280;26823;42.662;23.352;2023-07-16T10:17:21;95047.81;;;30.56;50.21
41078;BME280;26823;42.662;23.352;2023-07-16T10:19:48;95057.00;;;30.50;51.41
41078;BME280;26823;42.662;23.352;2023-07-16T10:22:13;95049.09;;;30.05;50.28
41078;BME280;26823;42.662;23.352;2023-07-16T10:24:39;95049.47;;;30.10;50.27
41078;BME280;26823;42.662;23.352;2023-07-16T10:27:05;95049.47;;;30.21;50.37
41078;BME280;26823;42.662;23.352;2023-07-16T10:29:30;95047.44;;;30.36;49.85
41078;BME280;26823;42.662;23.352;2023-07-16T10:31:57;95035.09;;;30.52;49.53
41078;BME280;26823;42.662;23.352;2023-07-16T10:34:23;95038.22;;;30.68;49.57
41078;BME280;26823;42.662;23.352;2023-07-16T10:36:50;95013.16;;;30.57;49.07
41078;BME280;26823;42.662;23.352;2023-07-16T10:39:15;95046.22;;;30.63;49.74
41078;BME280;26823;42.662;23.352;2023-07-16T10:41:41;95039.00;;;30.72;49.48
41078;BME280;26823;42.662;23.352;2023-07-16T10:44:13;95047.81;;;30.64;50.71
41078;BME280;26823;42.662;23.352;2023-07-16T10:46:41;95037.03;;;30.66;51.05
41078;BME280;26823;42.662;23.352;2023-07-16T10:49:07;95040.56;;;30.81;49.16
41078;BME280;26823;42.662;23.352;2023-07-16T10:51:33;95031.38;;;30.91;49.26
41078;BME280;26823;42.662;23.352;2023-07-16T10:53:59;95037.28;;;31.00;49.11
41078;BME280;26823;42.662;23.352;2023-07-16T10:56:24;95032.56;;;30.86;48.10
41078;BME280;26823;42.662;23.352;2023-07-16T10:58:50;95031.38;;;30.91;48.90
41078;BME280;26823;42.662;23.352;2023-07-16T11:01:16;95031.69;;;31.04;48.77
41078;BME280;26823;42.662;23.352;2023-07-16T11:03:41;95022.13;;;31.05;48.63
41078;BME280;26823;42.662;23.352;2023-07-16T11:06:08;95032.44;;;31.19;48.21
41078;BME280;26823;42.662;23.352;2023-07-16T11:08:34;95014.88;;;31.22;47.82
41078;BME280;26823;42.662;23.352;2023-07-16T11:10:59;95018.81;;;31.28;48.54
41078;BME280;26823;42.662;23.352;2023-07-16T11:13:29;95019.75;;;31.00;46.42
41078;BME280;26823;42.662;23.352;2023-07-16T11:15:56;95027.31;;;31.03;47.13
41078;BME280;26823;42.662;23.352;2023-07-16T11:18:24;95024.50;;;31.14;46.86
41078;BME280;26823;42.662;23.352;2023-07-16T11:20:51;95016.16;;;30.99;45.13
41078;BME280;26823;42.662;23.352;2023-07-16T11:23:17;95012.56;;;31.06;44.86
41078;BME280;26823;42.662;23.352;2023-07-16T11:25:47;95008.50;;;31.21;44.74
41078;BME280;26823;42.662;23.352;2023-07-16T11:28:13;95009.31;;;31.15;43.71
41078;BME280;26823;42.662;23.352;2023-07-16T11:30:38;95010.91;;;31.16;44.83
41078;BME280;26823;42.662;23.352;2023-07-16T11:33:12;95011.59;;;31.34;45.78
41078;BME280;26823;42.662;23.352;2023-07-16T11:35:39;95013.13;;;31.43;43.24
41078;BME280;26823;42.662;23.352;2023-07-16T11:38:05;95002.38;;;31.37;43.59
41078;BME280;26823;42.662;23.352;2023-07-16T11:40:34;95000.72;;;31.51;42.82
41078;BME280;26823;42.662;23.352;2023-07-16T11:43:08;95012.59;;;31.69;42.54
41078;BME280;26823;42.662;23.352;2023-07-16T11:45:35;95004.09;;;31.80;43.07
41078;BME280;26823;42.662;23.352;2023-07-16T11:48:01;95010.44;;;31.84;43.47
41078;BME280;26823;42.662;23.352;2023-07-16T11:50:28;95002.00;;;31.92;43.20
41078;BME280;26823;42.662;23.352;2023-07-16T11:52:56;95003.88;;;32.06;41.68
41078;BME280;26823;42.662;23.352;2023-07-16T11:55:28;95007.41;;;32.10;42.46
41078;BME280;26823;42.662;23.352;2023-07-16T11:57:53;94997.44;;;32.09;42.20
41078;BME280;26823;42.662;23.352;2023-07-16T12:00:22;95002.25;;;32.08;42.24
41078;BME280;26823;42.662;23.352;2023-07-16T12:02:47;94994.25;;;32.10;42.24
41078;BME280;26823;42.662;23.352;2023-07-16T12:05:22;94994.22;;;32.14;41.76
41078;BME280;26823;42.662;23.352;2023-07-16T12:07:53;94984.56;;;32.22;41.17
41078;BME280;26823;42.662;23.352;2023-07-16T12:10:19;94990.53;;;32.24;41.20
41078;BME280;26823;42.662;23.352;2023-07-16T12:12:44;94990.16;;;32.22;40.70
41078;BME280;26823;42.662;23.352;2023-07-16T12:15:10;94981.50;;;32.06;40.13
41078;BME280;26823;42.662;23.352;2023-07-16T12:17:35;94991.03;;;32.12;40.59
41078;BME280;26823;42.662;23.352;2023-07-16T12:20:02;94986.63;;;32.11;40.78
41078;BME280;26823;42.662;23.352;2023-07-16T12:22:29;94981.47;;;32.09;39.83
41078;BME280;26823;42.662;23.352;2023-07-16T12:24:54;94979.41;;;32.13;40.74
41078;BME280;26823;42.662;23.352;2023-07-16T12:27:20;94980.66;;;32.09;39.09
41078;BME280;26823;42.662;23.352;2023-07-16T12:29:46;94978.22;;;32.14;38.67
41078;BME280;26823;42.662;23.352;2023-07-16T12:32:13;94969.84;;;32.11;39.50
41078;BME280;26823;42.662;23.352;2023-07-16T12:34:39;94979.00;;;32.15;39.64
41078;BME280;26823;42.662;23.352;2023-07-16T12:37:04;94980.22;;;32.14;38.57
41078;BME280;26823;42.662;23.352;2023-07-16T12:39:30;94971.41;;;32.15;38.38
41078;BME280;26823;42.662;23.352;2023-07-16T12:41:55;94968.38;;;31.99;38.42
41078;BME280;26823;42.662;23.352;2023-07-16T12:44:21;94979.09;;;32.08;37.81
41078;BME280;26823;42.662;23.352;2023-07-16T12:46:46;94971.97;;;31.99;37.13
41078;BME280;26823;42.662;23.352;2023-07-16T12:49:11;94970.00;;;31.96;37.88
41078;BME280;26823;42.662;23.352;2023-07-16T12:51:37;94967.91;;;32.08;38.18
41078;BME280;26823;42.662;23.352;2023-07-16T12:54:05;94965.13;;;32.04;38.03